sensor_id;sensor_type;location;lat;lon;timestamp;P1;durP1;ratioP1;P2;durP2;ratioP2
63346;SDS011;49472;49.880;8.650;2024-02-23T00:01:03;17.37;;;16.27;;
63346;SDS011;49472;49.880;8.650;2024-02-23T00:03:28;17.33;;;16.33;;
63346;SDS011;49472;49.880;8.650;2024-02-23T00:05:54;18.37;;;17.10;;
63346;SDS011;49472;49.880;8.650;2024-02-23T00:08:19;17.60;;;16.60;;
63346;SDS011;49472;49.880;8.650;2024-02-23T00:10:44;17.63;;;16.43;;
63346;SDS011;49472;49.880;8.650;2024-02-23T00:13:09;19.27;;;17.70;;
63346;SDS011;49472;49.880;8.650;2024-02-23T00:15:35;18.10;;;16.83;;
63346;SDS011;49472;49.880;8.650;2024-02-23T00:18:00;18.60;;;17.17;;
63346;SDS011;49472;49.880;8.650;2024-02-23T00:20:28;19.70;;;17.90;;
63346;SDS011;49472;49.880;8.650;2024-02-23T00:22:53;19.73;;;18.27;;
63346;SDS011;49472;49.880;8.650;2024-02-23T00:25:18;19.30;;;17.60;;
63346;SDS011;49472;49.880;8.650;2024-02-23T00:27:44;18.83;;;17.43;;
63346;SDS011;49472;49.880;8.650;2024-02-23T00:30:09;19.53;;;17.77;;
63346;SDS011;49472;49.880;8.650;2024-02-23T00:32:35;18.37;;;17.37;;
63346;SDS011;49472;49.880;8.650;2024-02-23T00:35:00;19.10;;;17.80;;
63346;SDS011;49472;49.880;8.650;2024-02-23T00:37:26;18.83;;;17.50;;
63346;SDS011;49472;49.880;8.650;2024-02-23T00:39:51;17.33;;;16.23;;
63346;SDS011;49472;49.880;8.650;2024-02-23T00:42:16;17.50;;;16.40;;
63346;SDS011;49472;49.880;8.650;2024-02-23T00:44:41;17.00;;;16.10;;
63346;SDS011;49472;49.880;8.650;2024-02-23T00:47:06;18.20;;;16.40;;
63346;SDS011;49472;49.880;8.650;2024-02-23T00:49:31;17.00;;;16.00;;
63346;SDS011;49472;49.880;8.650;2024-02-23T00:51:57;17.50;;;16.13;;
63346;SDS011;49472;49.880;8.650;2024-02-23T00:54:22;16.80;;;15.73;;
63346;SDS011;49472;49.880;8.650;2024-02-23T00:56:47;16.80;;;15.70;;
63346;SDS011;49472;49.880;8.650;2024-02-23T00:59:12;17.40;;;16.00;;
63346;SDS011;49472;49.880;8.650;2024-02-23T01:01:38;17.43;;;16.17;;
63346;SDS011;49472;49.880;8.650;2024-02-23T01:04:03;18.03;;;16.53;;
63346;SDS011;49472;49.880;8.650;2024-02-23T01:06:28;17.37;;;16.40;;
63346;SDS011;49472;49.880;8.650;2024-02-23T01:08:53;16.90;;;15.80;;
63346;SDS011;49472;49.880;8.650;2024-02-23T01:11:19;17.10;;;15.90;;
63346;SDS011;49472;49.880;8.650;2024-02-23T01:13:44;18.40;;;16.90;;
63346;SDS011;49472;49.880;8.650;2024-02-23T01:16:09;18.17;;;16.80;;
63346;SDS011;49472;49.880;8.650;2024-02-23T01:18:34;17.57;;;16.30;;
63346;SDS011;49472;49.880;8.650;2024-02-23T01:21:00;18.33;;;16.83;;
63346;SDS011;49472;49.880;8.650;2024-02-23T01:23:25;17.03;;;15.83;;
63346;SDS011;49472;49.880;8.650;2024-02-23T01:25:50;17.40;;;16.20;;
63346;SDS011;49472;49.880;8.650;2024-02-23T01:28:15;23.23;;;16.00;;
63346;SDS011;49472;49.880;8.650;2024-02-23T01:30:40;17.50;;;16.40;;
63346;SDS011;49472;49.880;8.650;2024-02-23T01:33:06;17.60;;;16.40;;
63346;SDS011;49472;49.880;8.650;2024-02-23T01:35:31;17.03;;;16.03;;
63346;SDS011;49472;49.880;8.650;2024-02-23T01:37:56;17.60;;;16.30;;
63346;SDS011;49472;49.880;8.650;2024-02-23T01:40:21;17.23;;;16.10;;
63346;SDS011;49472;49.880;8.650;2024-02-23T01:42:46;17.33;;;16.23;;
63346;SDS011;49472;49.880;8.650;2024-02-23T01:45:12;17.20;;;16.00;;
63346;SDS011;49472;49.880;8.650;2024-02-23T01:47:37;18.33;;;16.70;;
63346;SDS011;49472;49.880;8.650;2024-02-23T01:50:03;18.23;;;16.80;;
63346;SDS011;49472;49.880;8.650;2024-02-23T01:52:28;17.00;;;15.70;;
63346;SDS011;49472;49.880;8.650;2024-02-23T01:54:53;22.93;;;16.03;;
63346;SDS011;49472;49.880;8.650;2024-02-23T01:57:19;16.77;;;15.60;;
63346;SDS011;49472;49.880;8.650;2024-02-23T01:59:46;17.83;;;16.17;;
63346;SDS011;49472;49.880;8.650;2024-02-23T02:02:11;17.67;;;16.50;;
63346;SDS011;49472;49.880;8.650;2024-02-23T02:04:36;17.13;;;16.13;;
63346;SDS011;49472;49.880;8.650;2024-02-23T02:07:02;16.70;;;15.50;;
63346;SDS011;49472;49.880;8.650;2024-02-23T02:09:27;18.50;;;16.70;;
63346;SDS011;49472;49.880;8.650;2024-02-23T02:11:52;17.37;;;16.07;;
63346;SDS011;49472;49.880;8.650;2024-02-23T02:14:18;16.00;;;15.07;;
63346;SDS011;49472;49.880;8.650;2024-02-23T02:16:43;19.73;;;18.20;;
63346;SDS011;49472;49.880;8.650;2024-02-23T02:19:09;18.30;;;17.13;;
63346;SDS011;49472;49.880;8.650;2024-02-23T02:21:34;16.90;;;15.40;;
63346;SDS011;49472;49.880;8.650;2024-02-23T02:24:00;17.70;;;16.70;;
63346;SDS011;49472;49.880;8.650;2024-02-23T02:26:25;17.60;;;16.50;;
63346;SDS011;49472;49.880;8.650;2024-02-23T02:28:50;17.77;;;16.57;;
63346;SDS011;49472;49.880;8.650;2024-02-23T02:31:15;16.63;;;15.70;;
63346;SDS011;49472;49.880;8.650;2024-02-23T02:33:40;17.20;;;16.20;;
63346;SDS011;49472;49.880;8.650;2024-02-23T02:36:06;17.90;;;16.70;;
63346;SDS011;49472;49.880;8.650;2024-02-23T02:38:31;18.03;;;16.97;;
63346;SDS011;49472;49.880;8.650;2024-02-23T02:40:58;17.47;;;16.50;;
63346;SDS011;49472;49.880;8.650;2024-02-23T02:43:25;18.00;;;16.90;;
63346;SDS011;49472;49.880;8.650;2024-02-23T02:45:50;17.87;;;16.57;;
63346;SDS011;49472;49.880;8.650;2024-02-23T02:48:15;18.57;;;17.07;;
63346;SDS011;49472;49.880;8.650;2024-02-23T02:50:41;17.80;;;16.63;;
63346;SDS011;49472;49.880;8.650;2024-02-23T02:53:06;18.20;;;16.70;;
63346;SDS011;49472;49.880;8.650;2024-02-23T02:55:31;17.70;;;16.40;;
63346;SDS011;49472;49.880;8.650;2024-02-23T02:57:57;17.90;;;16.60;;
63346;SDS011;49472;49.880;8.650;2024-02-23T03:00:22;17.97;;;16.67;;
63346;SDS011;49472;49.880;8.650;2024-02-23T03:02:47;17.30;;;16.00;;
63346;SDS011;49472;49.880;8.650;2024-02-23T03:05:12;16.77;;;15.83;;
63346;SDS011;49472;49.880;8.650;2024-02-23T03:07:38;17.10;;;16.00;;
63346;SDS011;49472;49.880;8.650;2024-02-23T03:10:03;18.13;;;16.93;;
63346;SDS011;49472;49.880;8.650;2024-02-23T03:12:28;17.30;;;16.20;;
63346;SDS011;49472;49.880;8.650;2024-02-23T03:14:53;17.83;;;16.17;;
63346;SDS011;49472;49.880;8.650;2024-02-23T03:17:20;17.27;;;16.20;;
63346;SDS011;49472;49.880;8.650;2024-02-23T03:19:46;16.63;;;15.73;;
63346;SDS011;49472;49.880;8.650;2024-02-23T03:22:11;17.73;;;16.40;;
63346;SDS011;49472;49.880;8.650;2024-02-23T03:24:36;17.33;;;16.10;;
63346;SDS011;49472;49.880;8.650;2024-02-23T03:27:02;17.80;;;16.33;;
63346;SDS011;49472;49.880;8.650;2024-02-23T03:29:27;17.33;;;16.13;;
63346;SDS011;49472;49.880;8.650;2024-02-23T03:31:56;17.33;;;15.90;;
63346;SDS011;49472;49.880;8.650;2024-02-23T03:34:22;17.10;;;16.10;;
63346;SDS011;49472;49.880;8.650;2024-02-23T03:36:47;17.10;;;16.00;;
63346;SDS011;49472;49.880;8.650;2024-02-23T03:39:12;18.53;;;16.83;;
63346;SDS011;49472;49.880;8.650;2024-02-23T03:41:38;16.80;;;15.87;;
63346;SDS011;49472;49.880;8.650;2024-02-23T03:44:03;18.00;;;16.60;;
63346;SDS011;49472;49.880;8.650;2024-02-23T03:46:28;17.10;;;16.00;;
63346;SDS011;49472;49.880;8.650;2024-02-23T03:48:53;17.20;;;16.10;;
63346;SDS011;49472;49.880;8.650;2024-02-23T03:51:19;17.00;;;16.00;;
63346;SDS011;49472;49.880;8.650;2024-02-23T03:53:44;17.13;;;15.80;;
63346;SDS011;49472;49.880;8.650;2024-02-23T03:56:09;17.10;;;15.90;;
63346;SDS011;49472;49.880;8.650;2024-02-23T03:58:34;33.57;;;17.00;;
63346;SDS011;49472;49.880;8.650;2024-02-23T04:00:59;17.90;;;16.70;;
63346;SDS011;49472;49.880;8.650;2024-02-23T04:03:24;17.13;;;15.93;;
63346;SDS011;49472;49.880;8.650;2024-02-23T04:05:50;19.07;;;16.80;;
63346;SDS011;49472;49.880;8.650;2024-02-23T04:08:15;17.67;;;16.23;;
63346;SDS011;49472;49.880;8.650;2024-02-23T04:10:40;16.83;;;15.80;;
63346;SDS011;49472;49.880;8.650;2024-02-23T04:13:05;17.10;;;16.00;;
63346;SDS011;49472;49.880;8.650;2024-02-23T04:15:30;17.70;;;16.40;;
63346;SDS011;49472;49.880;8.650;2024-02-23T04:17:56;17.47;;;16.03;;
63346;SDS011;49472;49.880;8.650;2024-02-23T04:20:21;18.03;;;16.80;;
63346;SDS011;49472;49.880;8.650;2024-02-23T04:22:46;16.57;;;15.63;;
63346;SDS011;49472;49.880;8.650;2024-02-23T04:25:11;20.23;;;15.70;;
63346;SDS011;49472;49.880;8.650;2024-02-23T04:27:37;15.53;;;14.40;;
63346;SDS011;49472;49.880;8.650;2024-02-23T04:30:02;16.53;;;15.23;;
63346;SDS011;49472;49.880;8.650;2024-02-23T04:32:27;17.40;;;15.67;;
63346;SDS011;49472;49.880;8.650;2024-02-23T04:34:53;16.60;;;15.40;;
63346;SDS011;49472;49.880;8.650;2024-02-23T04:37:18;16.07;;;15.00;;
63346;SDS011;49472;49.880;8.650;2024-02-23T04:39:43;17.43;;;16.13;;
63346;SDS011;49472;49.880;8.650;2024-02-23T04:42:09;16.83;;;15.37;;
63346;SDS011;49472;49.880;8.650;2024-02-23T04:44:34;15.50;;;14.60;;
63346;SDS011;49472;49.880;8.650;2024-02-23T04:47:00;16.47;;;15.00;;
63346;SDS011;49472;49.880;8.650;2024-02-23T04:49:25;15.60;;;14.43;;
63346;SDS011;49472;49.880;8.650;2024-02-23T04:51:50;17.03;;;15.37;;
63346;SDS011;49472;49.880;8.650;2024-02-23T04:54:15;15.13;;;14.17;;
63346;SDS011;49472;49.880;8.650;2024-02-23T04:56:41;16.53;;;15.20;;
63346;SDS011;49472;49.880;8.650;2024-02-23T04:59:06;18.40;;;16.57;;
63346;SDS011;49472;49.880;8.650;2024-02-23T05:01:34;17.23;;;15.43;;
63346;SDS011;49472;49.880;8.650;2024-02-23T05:04:00;15.17;;;14.20;;
63346;SDS011;49472;49.880;8.650;2024-02-23T05:06:25;17.77;;;16.17;;
63346;SDS011;49472;49.880;8.650;2024-02-23T05:08:50;17.50;;;15.90;;
63346;SDS011;49472;49.880;8.650;2024-02-23T05:11:15;17.87;;;16.10;;
63346;SDS011;49472;49.880;8.650;2024-02-23T05:13:41;16.37;;;15.13;;
63346;SDS011;49472;49.880;8.650;2024-02-23T05:16:06;17.03;;;15.43;;
63346;SDS011;49472;49.880;8.650;2024-02-23T05:18:32;16.80;;;15.53;;
63346;SDS011;49472;49.880;8.650;2024-02-23T05:20:57;16.23;;;15.10;;
63346;SDS011;49472;49.880;8.650;2024-02-23T05:23:22;17.33;;;15.77;;
63346;SDS011;49472;49.880;8.650;2024-02-23T05:25:47;16.07;;;15.03;;
63346;SDS011;49472;49.880;8.650;2024-02-23T05:28:12;16.33;;;15.20;;
63346;SDS011;49472;49.880;8.650;2024-02-23T05:30:37;15.97;;;14.87;;
63346;SDS011;49472;49.880;8.650;2024-02-23T05:33:03;16.00;;;14.97;;
63346;SDS011;49472;49.880;8.650;2024-02-23T05:35:28;17.13;;;15.87;;
63346;SDS011;49472;49.880;8.650;2024-02-23T05:37:54;16.53;;;15.20;;
63346;SDS011;49472;49.880;8.650;2024-02-23T05:40:20;16.07;;;14.70;;
63346;SDS011;49472;49.880;8.650;2024-02-23T05:42:45;16.60;;;14.87;;
63346;SDS011;49472;49.880;8.650;2024-02-23T05:45:10;16.50;;;15.10;;
63346;SDS011;49472;49.880;8.650;2024-02-23T05:47:36;16.10;;;15.13;;
63346;SDS011;49472;49.880;8.650;2024-02-23T05:50:04;16.40;;;15.10;;
63346;SDS011;49472;49.880;8.650;2024-02-23T05:52:33;16.40;;;15.30;;
63346;SDS011;49472;49.880;8.650;2024-02-23T05:54:59;15.67;;;14.60;;
63346;SDS011;49472;49.880;8.650;2024-02-23T05:57:25;16.70;;;15.37;;
63346;SDS011;49472;49.880;8.650;2024-02-23T05:59:50;16.47;;;15.13;;
63346;SDS011;49472;49.880;8.650;2024-02-23T06:02:16;16.97;;;15.57;;
63346;SDS011;49472;49.880;8.650;2024-02-23T06:04:41;16.97;;;15.33;;
63346;SDS011;49472;49.880;8.650;2024-02-23T06:07:07;16.90;;;15.50;;
63346;SDS011;49472;49.880;8.650;2024-02-23T06:09:32;15.53;;;14.43;;
63346;SDS011;49472;49.880;8.650;2024-02-23T06:11:57;16.37;;;15.07;;
63346;SDS011;49472;49.880;8.650;2024-02-23T06:14:22;16.40;;;15.30;;
63346;SDS011;49472;49.880;8.650;2024-02-23T06:16:48;16.83;;;15.50;;
63346;SDS011;49472;49.880;8.650;2024-02-23T06:19:14;16.03;;;14.87;;
63346;SDS011;49472;49.880;8.650;2024-02-23T06:21:39;16.47;;;15.50;;
63346;SDS011;49472;49.880;8.650;2024-02-23T06:24:04;16.17;;;14.90;;
63346;SDS011;49472;49.880;8.650;2024-02-23T06:26:29;16.37;;;14.60;;
63346;SDS011;49472;49.880;8.650;2024-02-23T06:28:54;15.93;;;14.93;;
63346;SDS011;49472;49.880;8.650;2024-02-23T06:31:20;15.40;;;14.50;;
63346;SDS011;49472;49.880;8.650;2024-02-23T06:33:45;15.93;;;14.93;;
63346;SDS011;49472;49.880;8.650;2024-02-23T06:36:13;16.97;;;15.77;;
63346;SDS011;49472;49.880;8.650;2024-02-23T06:38:39;17.93;;;15.70;;
63346;SDS011;49472;49.880;8.650;2024-02-23T06:41:04;17.00;;;15.77;;
63346;SDS011;49472;49.880;8.650;2024-02-23T06:43:29;16.50;;;15.30;;
63346;SDS011;49472;49.880;8.650;2024-02-23T06:45:54;16.63;;;14.90;;
63346;SDS011;49472;49.880;8.650;2024-02-23T06:48:19;16.07;;;14.80;;
63346;SDS011;49472;49.880;8.650;2024-02-23T06:50:45;16.60;;;15.10;;
63346;SDS011;49472;49.880;8.650;2024-02-23T06:53:10;16.37;;;15.40;;
63346;SDS011;49472;49.880;8.650;2024-02-23T06:55:36;16.10;;;14.90;;
63346;SDS011;49472;49.880;8.650;2024-02-23T06:58:01;17.60;;;16.50;;
63346;SDS011;49472;49.880;8.650;2024-02-23T07:00:26;16.07;;;15.07;;
63346;SDS011;49472;49.880;8.650;2024-02-23T07:02:51;21.50;;;17.20;;
63346;SDS011;49472;49.880;8.650;2024-02-23T07:05:17;17.00;;;15.60;;
63346;SDS011;49472;49.880;8.650;2024-02-23T07:07:43;15.20;;;14.30;;
63346;SDS011;49472;49.880;8.650;2024-02-23T07:10:08;16.73;;;15.70;;
63346;SDS011;49472;49.880;8.650;2024-02-23T07:12:33;17.40;;;15.90;;
63346;SDS011;49472;49.880;8.650;2024-02-23T07:14:59;16.63;;;15.50;;
63346;SDS011;49472;49.880;8.650;2024-02-23T07:17:24;18.43;;;16.70;;
63346;SDS011;49472;49.880;8.650;2024-02-23T07:19:49;18.27;;;16.70;;
63346;SDS011;49472;49.880;8.650;2024-02-23T07:22:15;19.20;;;16.43;;
63346;SDS011;49472;49.880;8.650;2024-02-23T07:24:42;16.17;;;15.17;;
63346;SDS011;49472;49.880;8.650;2024-02-23T07:27:08;17.30;;;16.10;;
63346;SDS011;49472;49.880;8.650;2024-02-23T07:29:33;19.80;;;17.83;;
63346;SDS011;49472;49.880;8.650;2024-02-23T07:31:59;16.83;;;15.63;;
63346;SDS011;49472;49.880;8.650;2024-02-23T07:34:24;17.00;;;15.80;;
63346;SDS011;49472;49.880;8.650;2024-02-23T07:36:52;16.80;;;15.63;;
63346;SDS011;49472;49.880;8.650;2024-02-23T07:39:17;22.03;;;15.87;;
63346;SDS011;49472;49.880;8.650;2024-02-23T07:41:42;17.07;;;15.80;;
63346;SDS011;49472;49.880;8.650;2024-02-23T07:44:08;17.77;;;16.30;;
63346;SDS011;49472;49.880;8.650;2024-02-23T07:46:33;17.30;;;16.07;;
63346;SDS011;49472;49.880;8.650;2024-02-23T07:48:58;17.27;;;15.90;;
63346;SDS011;49472;49.880;8.650;2024-02-23T07:51:23;17.90;;;16.40;;
63346;SDS011;49472;49.880;8.650;2024-02-23T07:53:49;17.93;;;16.70;;
63346;SDS011;49472;49.880;8.650;2024-02-23T07:56:14;16.87;;;15.60;;
63346;SDS011;49472;49.880;8.650;2024-02-23T07:58:41;17.93;;;16.23;;
63346;SDS011;49472;49.880;8.650;2024-02-23T08:01:07;16.23;;;15.00;;
63346;SDS011;49472;49.880;8.650;2024-02-23T08:03:32;17.33;;;16.07;;
63346;SDS011;49472;49.880;8.650;2024-02-23T08:05:57;17.03;;;15.80;;
63346;SDS011;49472;49.880;8.650;2024-02-23T08:08:22;18.10;;;16.17;;
63346;SDS011;49472;49.880;8.650;2024-02-23T08:10:48;17.37;;;15.70;;
63346;SDS011;49472;49.880;8.650;2024-02-23T08:13:14;18.13;;;16.60;;
63346;SDS011;49472;49.880;8.650;2024-02-23T08:15:40;17.50;;;16.10;;
63346;SDS011;49472;49.880;8.650;2024-02-23T08:18:05;16.77;;;15.60;;
63346;SDS011;49472;49.880;8.650;2024-02-23T08:20:30;16.40;;;15.17;;
63346;SDS011;49472;49.880;8.650;2024-02-23T08:22:56;16.70;;;15.70;;
63346;SDS011;49472;49.880;8.650;2024-02-23T08:25:21;17.63;;;16.20;;
63346;SDS011;49472;49.880;8.650;2024-02-23T08:27:46;17.67;;;16.23;;
63346;SDS011;49472;49.880;8.650;2024-02-23T08:30:13;17.83;;;16.13;;
63346;SDS011;49472;49.880;8.650;2024-02-23T08:32:38;19.23;;;15.40;;
63346;SDS011;49472;49.880;8.650;2024-02-23T08:35:03;17.37;;;15.60;;
63346;SDS011;49472;49.880;8.650;2024-02-23T08:37:29;25.53;;;15.97;;
63346;SDS011;49472;49.880;8.650;2024-02-23T08:39:54;17.03;;;15.43;;
63346;SDS011;49472;49.880;8.650;2024-02-23T08:42:19;16.93;;;15.83;;
63346;SDS011;49472;49.880;8.650;2024-02-23T08:44:45;16.83;;;15.60;;
63346;SDS011;49472;49.880;8.650;2024-02-23T08:47:10;17.70;;;16.40;;
63346;SDS011;49472;49.880;8.650;2024-02-23T08:49:35;17.07;;;15.87;;
63346;SDS011;49472;49.880;8.650;2024-02-23T08:52:00;17.40;;;16.20;;
63346;SDS011;49472;49.880;8.650;2024-02-23T08:54:27;18.57;;;17.17;;
63346;SDS011;49472;49.880;8.650;2024-02-23T08:56:52;17.50;;;16.20;;
63346;SDS011;49472;49.880;8.650;2024-02-23T08:59:17;18.30;;;17.10;;
63346;SDS011;49472;49.880;8.650;2024-02-23T09:01:42;18.63;;;17.03;;
63346;SDS011;49472;49.880;8.650;2024-02-23T09:04:09;18.57;;;16.93;;
63346;SDS011;49472;49.880;8.650;2024-02-23T09:06:34;19.93;;;17.90;;
63346;SDS011;49472;49.880;8.650;2024-02-23T09:08:59;22.63;;;17.70;;
63346;SDS011;49472;49.880;8.650;2024-02-23T09:11:25;25.27;;;17.87;;
63346;SDS011;49472;49.880;8.650;2024-02-23T09:13:51;19.10;;;17.23;;
63346;SDS011;49472;49.880;8.650;2024-02-23T09:16:16;19.87;;;17.77;;
63346;SDS011;49472;49.880;8.650;2024-02-23T09:18:42;19.87;;;17.87;;
63346;SDS011;49472;49.880;8.650;2024-02-23T09:21:07;18.43;;;16.83;;
63346;SDS011;49472;49.880;8.650;2024-02-23T09:23:32;18.10;;;16.60;;
63346;SDS011;49472;49.880;8.650;2024-02-23T09:25:58;23.27;;;16.73;;
63346;SDS011;49472;49.880;8.650;2024-02-23T09:28:24;17.37;;;16.03;;
63346;SDS011;49472;49.880;8.650;2024-02-23T09:30:49;28.30;;;18.20;;
63346;SDS011;49472;49.880;8.650;2024-02-23T09:33:14;18.90;;;16.90;;
63346;SDS011;49472;49.880;8.650;2024-02-23T09:35:40;21.17;;;17.90;;
63346;SDS011;49472;49.880;8.650;2024-02-23T09:38:05;19.17;;;16.60;;
63346;SDS011;49472;49.880;8.650;2024-02-23T09:40:32;19.03;;;17.20;;
63346;SDS011;49472;49.880;8.650;2024-02-23T09:42:58;19.37;;;16.40;;
63346;SDS011;49472;49.880;8.650;2024-02-23T09:45:26;19.37;;;17.30;;
63346;SDS011;49472;49.880;8.650;2024-02-23T09:47:56;19.87;;;17.90;;
63346;SDS011;49472;49.880;8.650;2024-02-23T09:50:22;18.80;;;16.87;;
63346;SDS011;49472;49.880;8.650;2024-02-23T09:52:47;19.27;;;17.53;;
63346;SDS011;49472;49.880;8.650;2024-02-23T09:55:15;18.60;;;17.40;;
63346;SDS011;49472;49.880;8.650;2024-02-23T09:57:40;19.07;;;17.23;;
63346;SDS011;49472;49.880;8.650;2024-02-23T10:00:07;19.10;;;17.30;;
63346;SDS011;49472;49.880;8.650;2024-02-23T10:02:34;19.17;;;16.90;;
63346;SDS011;49472;49.880;8.650;2024-02-23T10:04:59;18.77;;;17.17;;
63346;SDS011;49472;49.880;8.650;2024-02-23T10:07:25;18.60;;;16.90;;
63346;SDS011;49472;49.880;8.650;2024-02-23T10:09:50;18.20;;;16.70;;
63346;SDS011;49472;49.880;8.650;2024-02-23T10:12:16;21.20;;;17.23;;
63346;SDS011;49472;49.880;8.650;2024-02-23T10:14:41;18.60;;;16.60;;
63346;SDS011;49472;49.880;8.650;2024-02-23T10:17:06;25.43;;;17.13;;
63346;SDS011;49472;49.880;8.650;2024-02-23T10:19:33;19.10;;;17.50;;
63346;SDS011;49472;49.880;8.650;2024-02-23T10:21:58;19.73;;;17.93;;
63346;SDS011;49472;49.880;8.650;2024-02-23T10:24:23;18.17;;;16.70;;
63346;SDS011;49472;49.880;8.650;2024-02-23T10:26:51;18.97;;;17.20;;
63346;SDS011;49472;49.880;8.650;2024-02-23T10:29:17;18.93;;;17.23;;
63346;SDS011;49472;49.880;8.650;2024-02-23T10:31:42;18.57;;;17.00;;
63346;SDS011;49472;49.880;8.650;2024-02-23T10:34:12;18.30;;;16.80;;
63346;SDS011;49472;49.880;8.650;2024-02-23T10:36:42;19.20;;;17.20;;
63346;SDS011;49472;49.880;8.650;2024-02-23T10:39:08;17.70;;;16.33;;
63346;SDS011;49472;49.880;8.650;2024-02-23T10:41:37;19.77;;;17.97;;
63346;SDS011;49472;49.880;8.650;2024-02-23T10:44:04;19.53;;;17.50;;
63346;SDS011;49472;49.880;8.650;2024-02-23T10:46:30;18.77;;;17.07;;
63346;SDS011;49472;49.880;8.650;2024-02-23T10:48:56;18.97;;;17.20;;
63346;SDS011;49472;49.880;8.650;2024-02-23T10:51:22;18.13;;;16.87;;
63346;SDS011;49472;49.880;8.650;2024-02-23T10:53:48;19.70;;;17.80;;
63346;SDS011;49472;49.880;8.650;2024-02-23T10:56:13;19.97;;;18.10;;
63346;SDS011;49472;49.880;8.650;2024-02-23T10:58:39;19.73;;;17.17;;
63346;SDS011;49472;49.880;8.650;2024-02-23T11:01:05;21.17;;;17.90;;
63346;SDS011;49472;49.880;8.650;2024-02-23T11:03:32;18.50;;;17.20;;
63346;SDS011;49472;49.880;8.650;2024-02-23T11:05:58;18.73;;;17.30;;
63346;SDS011;49472;49.880;8.650;2024-02-23T11:08:24;19.97;;;18.03;;
63346;SDS011;49472;49.880;8.650;2024-02-23T11:10:52;19.33;;;17.63;;
63346;SDS011;49472;49.880;8.650;2024-02-23T11:13:17;19.27;;;17.73;;
63346;SDS011;49472;49.880;8.650;2024-02-23T11:15:43;18.50;;;16.73;;
63346;SDS011;49472;49.880;8.650;2024-02-23T11:18:21;17.93;;;16.37;;
63346;SDS011;49472;49.880;8.650;2024-02-23T11:20:53;19.53;;;17.53;;
63346;SDS011;49472;49.880;8.650;2024-02-23T11:23:18;18.87;;;17.03;;
63346;SDS011;49472;49.880;8.650;2024-02-23T11:25:43;21.80;;;17.23;;
63346;SDS011;49472;49.880;8.650;2024-02-23T11:28:26;19.50;;;17.20;;
63346;SDS011;49472;49.880;8.650;2024-02-23T11:30:51;18.20;;;16.60;;
63346;SDS011;49472;49.880;8.650;2024-02-23T11:33:25;25.57;;;17.30;;
63346;SDS011;49472;49.880;8.650;2024-02-23T11:35:50;18.93;;;16.90;;
63346;SDS011;49472;49.880;8.650;2024-02-23T11:38:16;17.60;;;16.20;;
63346;SDS011;49472;49.880;8.650;2024-02-23T11:40:42;18.53;;;16.97;;
63346;SDS011;49472;49.880;8.650;2024-02-23T11:43:07;23.13;;;16.97;;
63346;SDS011;49472;49.880;8.650;2024-02-23T11:45:33;18.27;;;16.77;;
63346;SDS011;49472;49.880;8.650;2024-02-23T11:47:58;22.00;;;16.70;;
63346;SDS011;49472;49.880;8.650;2024-02-23T11:50:24;17.03;;;15.80;;
63346;SDS011;49472;49.880;8.650;2024-02-23T11:52:49;18.83;;;17.13;;
63346;SDS011;49472;49.880;8.650;2024-02-23T11:55:19;17.70;;;16.40;;
63346;SDS011;49472;49.880;8.650;2024-02-23T11:57:47;33.63;;;18.47;;
63346;SDS011;49472;49.880;8.650;2024-02-23T12:00:12;19.10;;;17.30;;
63346;SDS011;49472;49.880;8.650;2024-02-23T12:02:37;19.07;;;17.40;;
63346;SDS011;49472;49.880;8.650;2024-02-23T12:05:03;18.90;;;17.47;;
63346;SDS011;49472;49.880;8.650;2024-02-23T12:07:29;18.03;;;16.30;;
63346;SDS011;49472;49.880;8.650;2024-02-23T12:09:54;18.20;;;16.83;;
63346;SDS011;49472;49.880;8.650;2024-02-23T12:12:19;19.17;;;17.23;;
63346;SDS011;49472;49.880;8.650;2024-02-23T12:14:45;18.40;;;17.07;;
63346;SDS011;49472;49.880;8.650;2024-02-23T12:17:10;19.43;;;17.90;;
63346;SDS011;49472;49.880;8.650;2024-02-23T12:19:38;19.13;;;17.20;;
63346;SDS011;49472;49.880;8.650;2024-02-23T12:22:05;18.83;;;16.93;;
63346;SDS011;49472;49.880;8.650;2024-02-23T12:24:30;19.53;;;17.30;;
63346;SDS011;49472;49.880;8.650;2024-02-23T12:26:55;18.57;;;17.13;;
63346;SDS011;49472;49.880;8.650;2024-02-23T12:29:21;18.03;;;16.47;;
63346;SDS011;49472;49.880;8.650;2024-02-23T12:31:49;18.77;;;16.97;;
63346;SDS011;49472;49.880;8.650;2024-02-23T12:34:14;18.90;;;17.20;;
63346;SDS011;49472;49.880;8.650;2024-02-23T12:36:39;19.57;;;17.87;;
63346;SDS011;49472;49.880;8.650;2024-02-23T12:39:05;18.93;;;17.23;;
63346;SDS011;49472;49.880;8.650;2024-02-23T12:41:30;19.03;;;17.33;;
63346;SDS011;49472;49.880;8.650;2024-02-23T12:43:55;20.83;;;17.57;;
63346;SDS011;49472;49.880;8.650;2024-02-23T12:46:20;18.47;;;17.07;;
63346;SDS011;49472;49.880;8.650;2024-02-23T12:48:46;18.50;;;16.80;;
63346;SDS011;49472;49.880;8.650;2024-02-23T12:51:11;18.90;;;17.23;;
63346;SDS011;49472;49.880;8.650;2024-02-23T12:53:38;20.40;;;18.20;;
63346;SDS011;49472;49.880;8.650;2024-02-23T12:56:07;17.73;;;16.50;;
63346;SDS011;49472;49.880;8.650;2024-02-23T12:58:36;20.47;;;18.47;;
63346;SDS011;49472;49.880;8.650;2024-02-23T13:01:01;19.10;;;17.30;;
63346;SDS011;49472;49.880;8.650;2024-02-23T13:03:27;19.57;;;17.87;;
63346;SDS011;49472;49.880;8.650;2024-02-23T13:05:53;19.20;;;17.70;;
63346;SDS011;49472;49.880;8.650;2024-02-23T13:08:18;19.80;;;17.90;;
63346;SDS011;49472;49.880;8.650;2024-02-23T13:10:44;17.77;;;16.07;;
63346;SDS011;49472;49.880;8.650;2024-02-23T13:13:09;18.70;;;16.97;;
63346;SDS011;49472;49.880;8.650;2024-02-23T13:15:34;17.93;;;16.60;;
63346;SDS011;49472;49.880;8.650;2024-02-23T13:18:02;18.10;;;16.90;;
63346;SDS011;49472;49.880;8.650;2024-02-23T13:20:27;18.63;;;17.03;;
63346;SDS011;49472;49.880;8.650;2024-02-23T13:22:53;17.87;;;16.53;;
63346;SDS011;49472;49.880;8.650;2024-02-23T13:25:18;18.90;;;17.13;;
63346;SDS011;49472;49.880;8.650;2024-02-23T13:27:43;18.07;;;16.60;;
63346;SDS011;49472;49.880;8.650;2024-02-23T13:30:08;20.10;;;18.40;;
63346;SDS011;49472;49.880;8.650;2024-02-23T13:32:34;18.10;;;16.97;;
63346;SDS011;49472;49.880;8.650;2024-02-23T13:34:59;19.10;;;17.07;;
63346;SDS011;49472;49.880;8.650;2024-02-23T13:37:29;18.47;;;17.07;;
63346;SDS011;49472;49.880;8.650;2024-02-23T13:39:54;18.57;;;17.17;;
63346;SDS011;49472;49.880;8.650;2024-02-23T13:42:20;19.47;;;17.77;;
63346;SDS011;49472;49.880;8.650;2024-02-23T13:44:45;18.87;;;17.10;;
63346;SDS011;49472;49.880;8.650;2024-02-23T13:47:11;19.40;;;17.70;;
63346;SDS011;49472;49.880;8.650;2024-02-23T13:49:37;18.67;;;17.30;;
63346;SDS011;49472;49.880;8.650;2024-02-23T13:52:02;18.20;;;16.80;;
63346;SDS011;49472;49.880;8.650;2024-02-23T13:54:27;18.13;;;16.50;;
63346;SDS011;49472;49.880;8.650;2024-02-23T13:56:52;18.40;;;16.80;;
63346;SDS011;49472;49.880;8.650;2024-02-23T13:59:18;18.40;;;17.10;;
63346;SDS011;49472;49.880;8.650;2024-02-23T14:01:44;17.70;;;16.50;;
63346;SDS011;49472;49.880;8.650;2024-02-23T14:04:10;18.83;;;17.43;;
63346;SDS011;49472;49.880;8.650;2024-02-23T14:06:35;18.27;;;17.07;;
63346;SDS011;49472;49.880;8.650;2024-02-23T14:09:00;19.07;;;17.60;;
63346;SDS011;49472;49.880;8.650;2024-02-23T14:11:26;19.10;;;17.37;;